Time;durP1;ratioP1;P1;durP2;ratioP2;P2;SDS_P1;SDS_P2;PMS_P1;PMS_P2;Temp;Humidity;BMP_temperature;BMP_pressure;BME280_temperature;BME280_humidity;BME280_pressure;Samples;Min_cycle;Max_cycle;Signal;HPM_P1;HPM_P2
2023/09/12 00:02:20;;;;;;;6.38;5.30;;;;;;;27.91;44.56;96460.91;5054567;28;20067;-28
2023/09/12 00:18:14;;;;;;;5.25;4.75;;;;;;;27.75;43.89;96456.44;5054651;28;20084;-28
2023/09/12 00:34:07;;;;;;;6.35;4.82;;;;;;;27.94;42.10;96453.50;5050012;28;20048;-29
2023/09/12 01:03:52;;;;;;;6.93;4.88;;;;;;;27.72;42.01;96410.91;5053947;28;20090;-28
2023/09/12 01:19:44;;;;;;;5.13;4.47;;;;;;;27.74;41.20;96422.25;5053683;28;20389;-28
2023/09/12 01:22:18;;;;;;;7.10;4.78;;;;;;;27.56;41.62;96422.44;5053892;28;20025;-28
2023/09/12 01:24:55;;;;;;;5.80;4.57;;;;;;;27.70;40.99;96416.25;5047156;28;20028;-28
2023/09/12 01:27:30;;;;;;;5.82;4.38;;;;;;;27.76;40.39;96414.13;5053262;28;20040;-28
2023/09/12 01:33:18;;;;;;;5.00;4.50;;;;;;;27.54;40.95;96425.75;5053670;28;20052;-28
2023/09/12 01:49:12;;;;;;;6.22;4.55;;;;;;;27.48;41.13;96431.41;5046617;28;20067;-28
2023/09/12 02:05:10;;;;;;;6.50;4.68;;;;;;;27.40;40.49;96433.38;5052858;28;20072;-28
2023/09/12 02:07:40;;;;;;;4.93;4.28;;;;;;;27.32;41.01;96426.97;5051743;28;20382;-28
2023/09/12 02:20:11;;;;;;;5.05;4.13;;;;;;;27.33;40.33;96430.47;5050093;28;20075;-28
2023/09/12 02:36:04;;;;;;;5.68;5.07;;;;;;;27.48;39.16;96425.84;5046970;28;20553;-28
2023/09/12 02:49:06;;;;;;;5.57;4.15;;;;;;;27.54;38.53;96434.84;5047604;28;20032;-28
2023/09/12 03:04:58;;;;;;;5.25;4.25;;;;;;;27.44;38.88;96422.66;5051927;28;20047;-28
2023/09/12 03:20:50;;;;;;;5.28;4.78;;;;;;;27.41;39.42;96423.00;5049111;28;20075;-28
2023/09/12 03:36:42;;;;;;;5.97;5.13;;;;;;;27.13;39.84;96412.44;5054863;28;20040;-28
2023/09/12 03:49:56;;;;;;;8.13;4.70;;;;;;;27.25;39.88;96424.84;5054941;28;20035;-28
2023/09/12 04:06:40;;;;;;;7.93;4.80;;;;;;;27.23;39.52;96410.69;5050572;28;20056;-28
2023/09/12 04:36:03;;;;;;;6.53;5.60;;;;;;;26.84;39.94;96437.25;5054775;28;20124;-28
2023/09/12 04:38:29;;;;;;;9.52;5.32;;;;;;;27.00;39.43;96429.16;5054674;28;20036;-28
2023/09/12 04:51:13;;;;;;;7.32;5.88;;;;;;;26.97;40.48;96439.31;5041268;28;20051;-28
2023/09/12 05:07:05;;;;;;;8.43;5.53;;;;;;;26.86;41.19;96436.72;5053977;28;20127;-28
2023/09/12 05:22:57;;;;;;;7.40;5.80;;;;;;;26.91;40.57;96449.03;5053749;28;20040;-28
2023/09/12 05:36:05;;;;;;;7.07;5.28;;;;;;;26.80;40.80;96445.19;5051138;28;20039;-28
2023/09/12 05:51:57;;;;;;;8.40;6.25;;;;;;;26.99;41.21;96458.25;5045438;28;20080;-28
2023/09/12 06:07:49;;;;;;;6.13;5.30;;;;;;;27.06;41.79;96463.19;5052736;28;20047;-27
2023/09/12 06:23:42;;;;;;;11.52;6.15;;;;;;;27.20;41.60;96478.59;5052798;28;20060;-28
2023/09/12 06:36:49;;;;;;;5.40;4.90;;;;;;;27.03;40.54;96490.06;5052716;28;20438;-28
2023/09/12 06:39:15;;;;;;;7.47;4.60;;;;;;;27.22;39.94;96492.72;5052200;28;20104;-28
2023/09/12 06:52:12;;;;;;;6.90;4.13;;;;;;;26.75;39.72;96498.91;5044775;28;20099;-27
2023/09/12 07:08:04;;;;;;;7.30;4.93;;;;;;;27.09;39.04;96512.22;5051988;28;20090;-28
2023/09/12 07:23:58;;;;;;;4.90;4.22;;;;;;;27.16;39.55;96525.50;5047094;28;20075;-28
2023/09/12 07:53:17;;;;;;;7.75;4.60;;;;;;;27.58;39.79;96567.50;5044947;28;20125;-28
2023/09/12 08:09:09;;;;;;;7.35;5.00;;;;;;;27.61;40.06;96581.09;5054914;28;20445;-28
2023/09/12 08:25:02;;;;;;;6.18;5.57;;;;;;;28.01;39.68;96590.16;5050767;28;20433;-28
2023/09/12 08:38:17;;;;;;;8.20;4.80;;;;;;;28.18;38.97;96593.38;5052739;28;20048;-27
2023/09/12 08:54:10;;;;;;;6.45;5.03;;;;;;;28.28;38.35;96590.13;5048081;28;20439;-28
2023/09/12 09:10:05;;;;;;;5.85;4.55;;;;;;;28.42;37.38;96597.91;5051909;28;20409;-28
2023/09/12 09:12:31;;;;;;;8.38;4.25;;;;;;;28.43;37.61;96604.22;5047147;28;20100;-27
2023/09/12 09:25:12;;;;;;;6.50;4.15;;;;;;;28.45;36.87;96605.16;5049753;28;20550;-28
2023/09/12 09:54:32;;;;;;;5.78;4.05;;;;;;;28.71;36.09;96623.84;5047163;28;20468;-28
2023/09/12 10:10:29;;;;;;;5.90;3.58;;;;;;;28.88;35.06;96607.47;5052624;28;20039;-28
2023/09/12 10:26:23;;;;;;;5.18;4.07;;;;;;;28.92;34.86;96599.53;5052223;28;20047;-28
2023/09/12 10:39:30;;;;;;;7.18;4.10;;;;;;;28.99;34.98;96602.91;5052194;28;20555;-28
2023/09/12 10:55:23;;;;;;;11.60;4.13;;;;;;;29.12;34.56;96588.88;5040544;28;20051;-28
2023/09/12 10:58:08;;;;;;;4.82;4.40;;;;;;;29.15;34.32;96596.91;5052115;28;20037;-27
2023/09/12 11:10:40;;;;;;;6.00;4.20;;;;;;;29.04;34.31;96599.22;5046414;28;20106;-28
2023/09/12 11:26:33;;;;;;;6.60;4.22;;;;;;;29.23;33.72;96582.97;5051485;28;20091;-28
2023/09/12 11:55:54;;;;;;;4.40;4.00;;;;;;;29.26;33.23;96565.13;5048786;28;20051;-27
2023/09/12 12:11:47;;;;;;;7.43;4.65;;;;;;;29.25;32.84;96558.78;5050590;28;20114;-28
2023/09/12 12:14:15;;;;;;;5.47;4.53;;;;;;;29.31;33.03;96539.06;5054861;28;20454;-27
2023/09/12 12:26:45;;;;;;;6.03;4.57;;;;;;;29.24;33.43;96543.34;5055048;28;20028;-28
2023/09/12 12:42:41;;;;;;;5.85;4.40;;;;;;;29.32;33.88;96540.56;5054344;28;20115;-28
2023/09/12 13:28:09;;;;;;;4.88;4.18;;;;;;;29.34;34.18;96521.22;5050038;28;20036;-28
2023/09/12 13:57:28;;;;;;;4.38;3.97;;;;;;;29.34;34.22;96510.06;5041139;28;20429;-28
2023/09/12 14:13:19;;;;;;;7.72;4.68;;;;;;;29.42;34.06;96496.91;5052089;28;20056;-28
2023/09/12 14:29:11;;;;;;;5.82;4.25;;;;;;;29.56;34.19;96508.69;5052959;28;20094;-28
2023/09/12 14:42:23;;;;;;;6.43;3.88;;;;;;;29.55;33.88;96499.56;5052275;28;20116;-28
2023/09/12 14:58:15;;;;;;;4.35;3.38;;;;;;;29.61;34.66;96505.00;5045088;28;20074;-28
2023/09/12 15:14:08;;;;;;;8.40;3.83;;;;;;;29.59;34.72;96508.34;5051541;28;20040;-27
2023/09/12 15:30:06;;;;;;;5.82;3.35;;;;;;;29.69;34.59;96493.84;5051610;28;20040;-28
2023/09/12 15:43:05;;;;;;;5.55;3.85;;;;;;;29.67;35.22;96490.88;5055577;28;20390;-28
2023/09/12 15:58:57;;;;;;;7.18;3.60;;;;;;;29.73;34.43;96492.19;5048491;28;20091;-28
2023/09/12 16:14:57;;;;;;;4.70;3.65;;;;;;;29.69;34.57;96499.41;5055228;28;20107;-28
2023/09/12 16:30:48;;;;;;;4.82;3.70;;;;;;;29.86;33.73;96513.66;5054817;28;20031;-28
2023/09/12 16:43:48;;;;;;;5.45;3.58;;;;;;;29.60;33.84;96506.28;5054934;28;20159;-27
2023/09/12 16:59:44;;;;;;;5.05;3.60;;;;;;;29.50;34.46;96499.72;5047863;28;20140;-28
2023/09/12 17:15:37;;;;;;;5.15;3.90;;;;;;;29.56;36.04;96501.06;5053867;28;20100;-28
2023/09/12 17:44:56;;;;;;;8.85;3.95;;;;;;;29.06;38.87;96524.03;5053659;28;20063;-28
2023/09/12 18:00:56;;;;;;;9.35;4.38;;;;;;;28.84;40.31;96542.84;5043628;28;20056;-28
2023/09/12 18:16:30;;;;;;;11.73;4.30;;;;;;;28.92;41.23;96552.06;5052684;28;20513;-27
2023/09/12 18:30:15;;;;;;;6.78;4.82;;;;;;;28.79;42.78;96554.94;5050842;28;20036;-28
2023/09/12 19:02:05;;;;;;;5.70;5.10;;;;;;;28.69;44.42;96587.34;5044499;28;20071;-28
2023/09/12 19:15:31;;;;;;;6.10;4.70;;;;;;;28.50;44.79;96595.19;5052506;28;20517;-28
2023/09/12 19:31:24;;;;;;;5.45;4.95;;;;;;;28.53;44.36;96597.63;5049538;28;20044;-28
2023/09/12 19:47:31;;;;;;;6.88;5.80;;;;;;;28.38;43.91;96596.72;5051822;28;20071;-28
2023/09/12 20:18:12;;;;;;;9.27;5.90;;;;;;;28.28;38.84;96609.66;5053067;28;20070;-28
2023/09/12 20:20:39;;;;;;;6.55;5.85;;;;;;;28.31;39.27;96614.16;5046903;28;20402;-28
2023/09/12 20:33:10;;;;;;;5.47;4.97;;;;;;;28.18;38.10;96606.56;5054633;28;20033;-28
2023/09/12 20:46:27;;;;;;;5.30;4.57;;;;;;;28.14;36.59;96617.25;5054314;28;20064;-28
2023/09/12 20:48:52;;;;;;;5.60;4.95;;;;;;;28.22;36.78;96612.53;5053990;28;20446;-28
2023/09/12 21:01:47;;;;;;;6.28;5.38;;;;;;;28.23;38.88;96620.38;5050881;28;20048;-28
2023/09/12 21:17:40;;;;;;;5.45;4.95;;;;;;;28.07;41.97;96629.81;5054152;28;20031;-28
2023/09/12 21:33:34;;;;;;;6.25;5.60;;;;;;;28.14;42.96;96634.00;5053352;28;20040;-28
2023/09/12 22:02:55;;;;;;;9.05;5.10;;;;;;;28.04;35.88;96630.91;5044234;28;20056;-28
2023/09/12 22:18:46;;;;;;;5.18;4.68;;;;;;;28.10;33.54;96633.56;5047427;28;20414;-28
2023/09/12 22:21:12;;;;;;;5.95;5.35;;;;;;;27.98;33.43;96635.84;5051407;28;20029;-28
2023/09/12 22:33:43;;;;;;;6.22;5.25;;;;;;;28.03;32.90;96637.78;5052302;28;20454;-28
2023/09/12 22:49:36;;;;;;;6.10;4.60;;;;;;;28.07;32.76;96631.84;5049398;28;20029;-28
2023/09/12 23:20:17;;;;;;;4.93;4.43;;;;;;;27.77;33.10;96630.19;5050496;28;20032;-28
2023/09/12 23:33:18;;;;;;;5.65;4.72;;;;;;;27.72;33.57;96644.22;5051854;28;20027;-28
2023/09/12 23:49:11;;;;;;;4.95;4.38;;;;;;;27.80;33.28;96640.25;5055622;28;20454;-28
2023/09/12 23:51:37;;;;;;;5.07;4.60;;;;;;;27.93;33.15;96636.72;5056187;28;20116;-28
